createdAt,value
2022-10-14T00:01:25.034Z,13.60
2022-10-14T00:03:54.212Z,13.50
2022-10-14T00:06:27.481Z,13.50
2022-10-14T00:08:56.068Z,13.60
2022-10-14T00:11:27.144Z,13.50
2022-10-14T00:13:57.494Z,13.50
2022-10-14T00:16:30.938Z,13.50
2022-10-14T00:18:59.557Z,13.50
2022-10-14T00:21:29.071Z,13.50
2022-10-14T00:23:57.800Z,13.50
2022-10-14T00:26:28.133Z,13.50
2022-10-14T00:28:56.972Z,13.40
2022-10-14T00:31:26.064Z,13.50
2022-10-14T00:33:53.759Z,13.40
2022-10-14T00:36:23.409Z,13.50
2022-10-14T00:38:52.810Z,13.50
2022-10-14T00:41:32.199Z,13.60
2022-10-14T00:44:27.647Z,13.50
2022-10-14T00:46:56.046Z,13.50
2022-10-14T00:49:34.154Z,13.40
2022-10-14T00:52:06.279Z,13.50
2022-10-14T00:54:44.751Z,13.50
2022-10-14T00:57:12.793Z,13.40
2022-10-14T00:59:40.733Z,13.40
2022-10-14T01:02:11.154Z,13.40
2022-10-14T01:04:40.897Z,13.40
2022-10-14T01:07:34.323Z,13.40
2022-10-14T01:10:10.679Z,13.40
2022-10-14T01:13:01.457Z,13.40
2022-10-14T01:15:35.479Z,13.30
2022-10-14T01:18:12.100Z,13.30
2022-10-14T01:21:15.025Z,13.20
2022-10-14T01:24:32.522Z,13.20
2022-10-14T01:27:12.662Z,13.20
2022-10-14T01:29:46.257Z,13.20
2022-10-14T01:32:20.484Z,13.10
2022-10-14T01:34:55.842Z,13.20
2022-10-14T01:37:29.090Z,13.20
2022-10-14T01:40:02.693Z,13.10
2022-10-14T01:42:36.254Z,13.30
2022-10-14T01:45:19.798Z,13.20
2022-10-14T01:47:51.410Z,13.20
2022-10-14T01:50:25.073Z,13.20
2022-10-14T01:53:06.941Z,13.20
2022-10-14T01:55:43.029Z,13.30
2022-10-14T01:58:13.260Z,13.30
2022-10-14T02:00:41.034Z,13.30
2022-10-14T02:03:11.503Z,13.30
2022-10-14T02:06:04.340Z,13.20
2022-10-14T02:08:41.445Z,13.30
2022-10-14T02:11:16.918Z,13.30
2022-10-14T02:14:06.905Z,13.30
2022-10-14T02:16:38.403Z,13.30
2022-10-14T02:19:22.315Z,13.30
2022-10-14T02:22:12.960Z,13.30
2022-10-14T02:24:44.763Z,13.30
2022-10-14T02:27:17.087Z,13.30
2022-10-14T02:29:47.325Z,13.30
2022-10-14T02:32:19.282Z,13.30
2022-10-14T02:34:52.210Z,13.40
2022-10-14T02:37:25.262Z,13.30
2022-10-14T02:40:07.088Z,13.20
2022-10-14T02:42:35.002Z,13.20
2022-10-14T02:45:03.411Z,13.30
2022-10-14T02:47:33.692Z,13.30
2022-10-14T02:50:01.386Z,13.30
2022-10-14T02:52:29.089Z,13.30
2022-10-14T02:54:59.704Z,13.20
2022-10-14T02:57:27.294Z,13.20
2022-10-14T02:59:54.876Z,13.30
2022-10-14T03:02:22.854Z,13.30
2022-10-14T03:04:50.736Z,13.20
2022-10-14T03:07:18.364Z,13.30
2022-10-14T03:09:46.053Z,13.40
2022-10-14T03:12:13.646Z,13.30
2022-10-14T03:14:41.511Z,13.30
2022-10-14T03:17:09.624Z,13.30
2022-10-14T03:19:37.470Z,13.40
2022-10-14T03:22:05.208Z,13.40
2022-10-14T03:24:32.891Z,13.40
2022-10-14T03:27:00.532Z,13.40
2022-10-14T03:29:30.342Z,13.40
2022-10-14T03:31:58.001Z,13.40
2022-10-14T03:34:25.567Z,13.30
2022-10-14T03:36:53.176Z,13.30
2022-10-14T03:39:20.760Z,13.40
2022-10-14T03:41:48.567Z,13.30
2022-10-14T03:44:16.093Z,13.30
2022-10-14T03:46:43.627Z,13.40
2022-10-14T03:49:14.847Z,13.30
2022-10-14T03:51:42.500Z,13.30
2022-10-14T03:54:10.132Z,13.30
2022-10-14T03:56:37.755Z,13.40
2022-10-14T03:59:05.421Z,13.30
2022-10-14T04:01:33.087Z,13.30
2022-10-14T04:04:00.909Z,13.30
2022-10-14T04:06:28.622Z,13.40
2022-10-14T04:08:56.262Z,13.40
2022-10-14T04:11:23.857Z,13.30
2022-10-14T04:13:51.451Z,13.30
2022-10-14T04:16:20.228Z,13.40
2022-10-14T04:18:47.842Z,13.30
2022-10-14T04:21:15.390Z,13.50
2022-10-14T04:23:42.955Z,13.40
2022-10-14T04:26:11.017Z,13.40
2022-10-14T04:28:39.545Z,13.40
2022-10-14T04:31:10.173Z,13.40
2022-10-14T04:33:37.781Z,13.40
2022-10-14T04:36:06.775Z,13.40
2022-10-14T04:38:34.453Z,13.40
2022-10-14T04:41:02.045Z,13.50
2022-10-14T04:43:29.671Z,13.40
2022-10-14T04:45:57.698Z,13.40
2022-10-14T04:48:25.482Z,13.40
2022-10-14T04:50:53.997Z,13.50
2022-10-14T04:53:22.428Z,13.40
2022-10-14T04:55:51.632Z,13.40
2022-10-14T04:58:19.213Z,13.50
2022-10-14T05:00:46.953Z,13.50
2022-10-14T05:03:14.524Z,13.60
2022-10-14T05:05:42.123Z,13.40
2022-10-14T05:08:09.675Z,13.50
2022-10-14T05:10:37.381Z,13.40
2022-10-14T05:13:05.300Z,13.50
2022-10-14T05:15:33.594Z,13.50
2022-10-14T05:18:01.197Z,13.50
2022-10-14T05:20:29.649Z,13.40
2022-10-14T05:23:09.140Z,13.40
2022-10-14T05:25:37.646Z,13.40
2022-10-14T05:28:07.301Z,13.40
2022-10-14T05:30:43.282Z,13.40
2022-10-14T05:33:13.998Z,13.40
2022-10-14T05:35:57.992Z,13.50
2022-10-14T05:38:27.986Z,13.40
2022-10-14T05:40:56.570Z,13.50
2022-10-14T05:43:32.089Z,13.40
2022-10-14T05:46:00.653Z,13.50
2022-10-14T05:48:30.299Z,13.50
2022-10-14T05:51:01.461Z,13.50
2022-10-14T05:53:29.520Z,13.50
2022-10-14T05:56:08.409Z,13.60
2022-10-14T05:58:36.086Z,13.50
2022-10-14T06:01:07.148Z,13.50
2022-10-14T06:03:34.960Z,13.50
2022-10-14T06:06:02.543Z,13.50
2022-10-14T06:08:30.203Z,13.60
2022-10-14T06:10:59.373Z,13.50
2022-10-14T06:13:27.548Z,13.50
2022-10-14T06:15:55.124Z,13.50
2022-10-14T06:18:22.686Z,13.50
2022-10-14T06:20:55.628Z,13.50
2022-10-14T06:23:25.255Z,13.60
2022-10-14T06:25:53.172Z,13.60
2022-10-14T06:28:20.793Z,13.50
2022-10-14T06:30:55.385Z,13.60
2022-10-14T06:33:23.405Z,13.70
2022-10-14T06:35:51.034Z,13.70
2022-10-14T06:38:18.886Z,13.60
2022-10-14T06:40:46.618Z,13.70
2022-10-14T06:43:14.193Z,13.70
2022-10-14T06:45:41.792Z,13.70
2022-10-14T06:48:09.452Z,13.80
2022-10-14T06:50:39.721Z,13.80
2022-10-14T06:53:07.539Z,13.80
2022-10-14T06:55:35.321Z,13.90
2022-10-14T06:58:02.922Z,13.90
2022-10-14T07:00:30.636Z,13.80
2022-10-14T07:02:59.456Z,13.90
2022-10-14T07:05:27.107Z,14.00
2022-10-14T07:07:54.783Z,14.10
2022-10-14T07:10:22.405Z,14.00
2022-10-14T07:12:54.204Z,14.00
2022-10-14T07:15:22.305Z,14.00
2022-10-14T07:17:49.974Z,14.00
2022-10-14T07:20:18.234Z,14.10
2022-10-14T07:22:45.958Z,14.10
2022-10-14T07:25:13.586Z,14.10
2022-10-14T07:27:41.175Z,14.00
2022-10-14T07:30:11.588Z,14.10
2022-10-14T07:32:42.756Z,14.10
2022-10-14T07:35:15.386Z,14.10
2022-10-14T07:37:43.013Z,14.20
2022-10-14T07:40:11.891Z,14.20
2022-10-14T07:42:40.040Z,14.20
2022-10-14T07:45:18.447Z,14.20
2022-10-14T07:47:49.072Z,14.30
2022-10-14T07:50:17.095Z,14.30
2022-10-14T07:52:44.824Z,14.40
2022-10-14T07:55:12.517Z,14.40
2022-10-14T07:57:41.215Z,14.40
2022-10-14T08:00:09.497Z,14.40
2022-10-14T08:02:37.056Z,14.40
2022-10-14T08:05:25.537Z,14.40
2022-10-14T08:07:52.745Z,14.40
2022-10-14T08:10:20.397Z,14.50
2022-10-14T08:12:48.250Z,14.40
2022-10-14T08:15:15.967Z,14.40
2022-10-14T08:17:43.548Z,14.50
2022-10-14T08:20:11.472Z,14.40
2022-10-14T08:22:39.101Z,14.50
2022-10-14T08:25:07.018Z,14.60
2022-10-14T08:27:34.613Z,14.70
2022-10-14T08:30:04.082Z,14.80
2022-10-14T08:32:34.840Z,14.90
2022-10-14T08:35:03.953Z,15.10
2022-10-14T08:37:31.518Z,15.20
2022-10-14T08:40:01.359Z,15.50
2022-10-14T08:42:44.195Z,15.50
2022-10-14T08:45:26.786Z,15.50
2022-10-14T08:47:57.161Z,15.50
2022-10-14T08:50:38.821Z,15.50
2022-10-14T08:53:13.505Z,15.70
2022-10-14T08:55:45.052Z,15.70
2022-10-14T08:58:31.681Z,15.90
2022-10-14T09:01:07.688Z,15.90
2022-10-14T09:03:37.563Z,16.00
2022-10-14T09:06:15.196Z,16.10
2022-10-14T09:08:50.020Z,16.20
2022-10-14T09:11:22.874Z,16.30
2022-10-14T09:13:55.823Z,16.30
2022-10-14T09:16:29.601Z,16.40
2022-10-14T09:18:59.611Z,16.40
2022-10-14T09:21:34.247Z,16.30
2022-10-14T09:24:14.211Z,16.20
2022-10-14T09:26:47.321Z,16.10
2022-10-14T09:29:44.280Z,16.10
2022-10-14T09:32:23.787Z,16.00
2022-10-14T09:34:52.907Z,15.90
2022-10-14T09:37:37.333Z,16.00
2022-10-14T09:40:30.116Z,15.90
2022-10-14T09:43:09.115Z,15.90
2022-10-14T09:46:12.338Z,15.90
2022-10-14T09:48:57.961Z,15.80
2022-10-14T09:51:33.924Z,15.80
2022-10-14T09:54:04.583Z,15.80
2022-10-14T09:56:41.581Z,15.80
2022-10-14T09:59:21.160Z,15.90
2022-10-14T10:02:18.571Z,15.90
2022-10-14T10:04:47.683Z,16.00
2022-10-14T10:07:27.581Z,16.00
2022-10-14T10:09:57.138Z,16.00
2022-10-14T10:12:30.516Z,16.10
2022-10-14T10:15:00.614Z,16.10
2022-10-14T10:17:32.650Z,16.10
2022-10-14T10:20:11.044Z,16.20
2022-10-14T10:22:39.270Z,16.10
2022-10-14T10:25:10.132Z,16.00
2022-10-14T10:27:43.113Z,16.00
2022-10-14T10:30:27.963Z,15.90
2022-10-14T10:33:01.505Z,16.00
2022-10-14T10:35:35.177Z,15.90
2022-10-14T10:38:22.208Z,15.90
2022-10-14T10:41:18.341Z,16.00
2022-10-14T10:44:07.858Z,15.90
2022-10-14T10:46:56.723Z,15.90
2022-10-14T10:49:52.784Z,15.90
2022-10-14T10:52:42.254Z,15.90
2022-10-14T10:55:20.087Z,15.90
2022-10-14T10:57:53.958Z,16.00
2022-10-14T11:03:13.321Z,16.00
2022-10-14T11:05:50.595Z,16.00
2022-10-14T11:09:02.245Z,16.10
2022-10-14T11:11:50.977Z,16.10
2022-10-14T11:14:33.104Z,16.00
2022-10-14T11:17:13.594Z,16.00
2022-10-14T11:19:47.740Z,15.90
2022-10-14T11:22:40.371Z,15.90
2022-10-14T11:25:13.736Z,15.80
2022-10-14T11:27:52.732Z,15.80
2022-10-14T11:30:33.805Z,15.80
2022-10-14T11:33:46.049Z,15.80
2022-10-14T11:36:43.719Z,15.70
2022-10-14T11:39:11.362Z,15.70
2022-10-14T11:42:04.859Z,15.70
2022-10-14T11:44:43.719Z,15.80
2022-10-14T11:47:22.947Z,15.80
2022-10-14T11:50:14.523Z,15.80
2022-10-14T11:53:01.737Z,15.80
2022-10-14T11:55:35.337Z,15.80
2022-10-14T11:58:26.689Z,15.80
2022-10-14T12:01:12.397Z,15.80
2022-10-14T12:03:59.696Z,15.80
2022-10-14T12:06:51.774Z,15.80
2022-10-14T12:09:28.213Z,15.80
2022-10-14T12:12:05.416Z,15.80
2022-10-14T12:14:39.943Z,15.80
2022-10-14T12:17:20.390Z,15.80
2022-10-14T12:19:49.750Z,15.80
2022-10-14T12:22:23.509Z,15.80
2022-10-14T12:25:05.421Z,15.80
2022-10-14T12:30:04.441Z,15.90
2022-10-14T12:32:32.310Z,15.90
2022-10-14T12:35:01.347Z,16.00
2022-10-14T12:37:39.910Z,16.00
2022-10-14T12:40:13.349Z,16.00
2022-10-14T12:42:44.103Z,16.00
2022-10-14T12:45:19.880Z,15.90
2022-10-14T12:48:00.664Z,15.90
2022-10-14T12:50:31.189Z,15.90
2022-10-14T12:53:02.901Z,15.90
2022-10-14T12:55:35.835Z,15.90
2022-10-14T12:58:05.065Z,15.90
2022-10-14T13:00:38.246Z,15.90
2022-10-14T13:03:20.064Z,15.90
2022-10-14T13:05:48.174Z,15.90
2022-10-14T13:08:15.968Z,15.90
2022-10-14T13:10:49.736Z,15.90
2022-10-14T13:13:44.782Z,15.90
2022-10-14T13:16:21.606Z,15.90
2022-10-14T13:18:52.590Z,15.90
2022-10-14T13:21:36.344Z,16.00
2022-10-14T13:24:11.541Z,16.10
2022-10-14T13:26:53.951Z,16.10
2022-10-14T13:29:40.295Z,16.20
2022-10-14T13:32:17.131Z,16.20
2022-10-14T13:34:54.372Z,16.30
2022-10-14T13:37:22.004Z,16.40
2022-10-14T13:39:49.690Z,16.50
2022-10-14T13:42:39.542Z,16.40
2022-10-14T13:45:14.947Z,16.40
2022-10-14T13:47:49.003Z,16.50
2022-10-14T13:50:23.075Z,16.60
2022-10-14T13:53:04.441Z,16.60
2022-10-14T13:55:32.083Z,16.60
2022-10-14T13:58:12.719Z,16.60
2022-10-14T14:00:59.727Z,16.60
2022-10-14T14:03:37.620Z,16.60
2022-10-14T14:06:14.698Z,16.60
2022-10-14T14:08:49.924Z,16.60
2022-10-14T14:11:33.396Z,16.60
2022-10-14T14:14:07.176Z,16.60
2022-10-14T14:16:48.355Z,16.70
2022-10-14T14:19:27.548Z,16.60
2022-10-14T14:22:31.839Z,16.50
2022-10-14T14:28:05.831Z,16.40
2022-10-14T14:30:38.980Z,16.40
2022-10-14T14:33:16.770Z,16.40
2022-10-14T14:36:00.157Z,16.50
2022-10-14T14:38:31.500Z,16.50
2022-10-14T14:41:18.513Z,16.50
2022-10-14T14:43:50.110Z,16.50
2022-10-14T14:46:35.742Z,16.40
2022-10-14T14:49:04.567Z,16.30
2022-10-14T14:51:40.105Z,16.40
2022-10-14T14:54:08.278Z,16.40
2022-10-14T14:56:43.934Z,16.30
2022-10-14T14:59:26.492Z,16.30
2022-10-14T15:01:56.827Z,16.30
2022-10-14T15:04:27.121Z,16.30
2022-10-14T15:07:05.602Z,16.30
2022-10-14T15:09:43.070Z,16.20
2022-10-14T15:12:23.966Z,16.10
2022-10-14T15:15:00.942Z,16.10
2022-10-14T15:17:47.898Z,16.10
2022-10-14T15:20:30.026Z,16.00
2022-10-14T15:22:58.003Z,16.00
2022-10-14T15:25:31.019Z,16.00
2022-10-14T15:28:00.609Z,16.00
2022-10-14T15:30:37.374Z,15.90
2022-10-14T15:33:14.823Z,16.00
2022-10-14T15:35:53.517Z,16.00
2022-10-14T15:38:21.299Z,15.90
2022-10-14T15:40:49.839Z,15.90
2022-10-14T15:43:21.478Z,15.80
2022-10-14T15:46:13.854Z,15.90
2022-10-14T15:48:48.095Z,15.90
2022-10-14T15:51:16.965Z,15.90
2022-10-14T15:53:47.201Z,15.90
2022-10-14T15:56:17.219Z,15.80
2022-10-14T15:58:46.092Z,15.80
2022-10-14T16:01:20.491Z,15.80
2022-10-14T16:03:49.931Z,15.80
2022-10-14T16:06:19.237Z,15.80
2022-10-14T16:08:46.838Z,15.70
2022-10-14T16:11:28.062Z,15.70
2022-10-14T16:13:56.347Z,15.70
2022-10-14T16:16:35.190Z,15.70
2022-10-14T16:19:03.351Z,15.70
2022-10-14T16:21:31.305Z,15.60
2022-10-14T16:23:59.567Z,15.70
2022-10-14T16:26:30.688Z,15.60
2022-10-14T16:29:00.251Z,15.60
2022-10-14T16:31:27.884Z,15.50
2022-10-14T16:33:55.577Z,15.60
2022-10-14T16:36:24.854Z,15.70
2022-10-14T16:38:52.788Z,15.50
2022-10-14T16:41:20.725Z,15.50
2022-10-14T16:43:48.677Z,15.50
2022-10-14T16:46:16.333Z,15.50
2022-10-14T16:48:47.096Z,15.40
2022-10-14T16:51:15.426Z,15.40
2022-10-14T16:53:45.386Z,15.40
2022-10-14T16:56:37.685Z,15.30
2022-10-14T16:59:08.214Z,15.30
2022-10-14T17:01:35.933Z,15.30
2022-10-14T17:04:03.601Z,15.20
2022-10-14T17:06:32.140Z,15.30
2022-10-14T17:08:59.974Z,15.30
2022-10-14T17:11:29.116Z,15.30
2022-10-14T17:13:59.239Z,15.30
2022-10-14T17:16:28.673Z,15.30
2022-10-14T17:18:58.370Z,15.20
2022-10-14T17:21:29.430Z,15.30
2022-10-14T17:24:03.213Z,15.30
2022-10-14T17:26:32.826Z,15.30
2022-10-14T17:29:00.614Z,15.40
2022-10-14T17:31:28.996Z,15.30
2022-10-14T17:33:58.549Z,15.40
2022-10-14T17:36:28.315Z,15.30
2022-10-14T17:38:57.543Z,15.30
2022-10-14T17:41:28.163Z,15.30
2022-10-14T17:43:58.507Z,15.30
2022-10-14T17:46:29.074Z,15.30
2022-10-14T17:49:01.397Z,15.30
2022-10-14T17:51:29.053Z,15.30
2022-10-14T17:54:02.575Z,15.30
2022-10-14T17:56:32.003Z,15.20
2022-10-14T17:59:05.655Z,15.20
2022-10-14T18:01:37.846Z,15.20
2022-10-14T18:04:11.574Z,15.10
2022-10-14T18:06:39.440Z,15.10
2022-10-14T18:09:09.487Z,15.20
2022-10-14T18:12:03.925Z,15.20
2022-10-14T18:14:34.117Z,15.20
2022-10-14T18:17:02.332Z,15.20
2022-10-14T18:19:29.940Z,15.20
2022-10-14T18:21:58.177Z,15.20
2022-10-14T18:24:28.608Z,15.20
2022-10-14T18:26:56.306Z,15.20
2022-10-14T18:29:24.972Z,15.10
2022-10-14T18:31:53.320Z,15.10
2022-10-14T18:34:22.422Z,15.10
2022-10-14T18:36:52.743Z,15.10
2022-10-14T18:39:20.527Z,15.10
2022-10-14T18:41:48.574Z,15.10
2022-10-14T18:44:16.390Z,15.20
2022-10-14T18:46:44.056Z,15.20
2022-10-14T18:49:12.003Z,15.20
2022-10-14T18:51:41.277Z,15.20
2022-10-14T18:54:20.883Z,15.10
2022-10-14T18:56:48.604Z,15.10
2022-10-14T18:59:19.199Z,15.10
2022-10-14T19:01:48.050Z,15.00
2022-10-14T19:04:16.340Z,15.00
2022-10-14T19:06:45.872Z,15.00
2022-10-14T19:09:13.881Z,15.00
2022-10-14T19:11:42.263Z,15.00
2022-10-14T19:14:10.625Z,15.00
2022-10-14T19:16:39.098Z,15.00
2022-10-14T19:19:14.434Z,15.00
2022-10-14T19:21:43.357Z,15.00
2022-10-14T19:24:12.284Z,14.90
2022-10-14T19:26:43.036Z,14.90
2022-10-14T19:29:13.377Z,15.00
2022-10-14T19:31:43.617Z,14.90
2022-10-14T19:34:14.434Z,15.00
2022-10-14T19:36:42.844Z,14.90
2022-10-14T19:39:14.104Z,14.90
2022-10-14T19:41:46.566Z,14.90
2022-10-14T19:44:15.666Z,14.90
2022-10-14T19:46:44.481Z,14.80
2022-10-14T19:49:13.715Z,14.80
2022-10-14T19:51:41.555Z,14.80
2022-10-14T19:54:11.570Z,14.80
2022-10-14T19:56:39.432Z,14.80
2022-10-14T19:59:07.120Z,14.80
2022-10-14T20:01:34.817Z,14.80
2022-10-14T20:04:03.305Z,14.80
2022-10-14T20:06:33.712Z,14.80
2022-10-14T20:09:02.275Z,14.70
2022-10-14T20:11:33.052Z,14.80
2022-10-14T20:14:00.735Z,14.80
2022-10-14T20:16:28.483Z,14.70
2022-10-14T20:18:56.560Z,14.80
2022-10-14T20:21:24.687Z,14.70
2022-10-14T20:23:52.320Z,14.70
2022-10-14T20:26:21.500Z,14.80
2022-10-14T20:28:50.264Z,14.70
2022-10-14T20:31:25.057Z,14.80
2022-10-14T20:33:54.366Z,14.80
2022-10-14T20:36:22.309Z,14.80
2022-10-14T20:38:50.584Z,14.80
2022-10-14T20:41:21.434Z,14.80
2022-10-14T20:43:49.870Z,14.90
2022-10-14T20:46:18.106Z,14.80
2022-10-14T20:48:46.560Z,14.80
2022-10-14T20:51:20.342Z,14.80
2022-10-14T20:53:48.307Z,14.80
2022-10-14T20:56:15.968Z,14.80
2022-10-14T20:58:43.580Z,14.80
2022-10-14T21:01:17.454Z,14.80
2022-10-14T21:03:46.330Z,14.80
2022-10-14T21:06:16.952Z,14.80
2022-10-14T21:08:44.621Z,14.90
2022-10-14T21:11:15.515Z,14.90
2022-10-14T21:13:45.457Z,14.80
2022-10-14T21:16:21.007Z,14.80
2022-10-14T21:18:55.033Z,14.80
2022-10-14T21:21:28.346Z,14.80
2022-10-14T21:24:00.186Z,14.80
2022-10-14T21:26:29.110Z,14.80
2022-10-14T21:28:56.931Z,14.80
2022-10-14T21:31:24.798Z,14.80
2022-10-14T21:34:02.497Z,14.80
2022-10-14T21:36:32.503Z,14.80
2022-10-14T21:39:03.941Z,14.90
2022-10-14T21:41:31.679Z,14.80
2022-10-14T21:43:59.594Z,14.80
2022-10-14T21:46:27.758Z,14.80
2022-10-14T21:48:57.157Z,14.80
2022-10-14T21:51:27.218Z,14.80
2022-10-14T21:53:55.049Z,14.80
2022-10-14T21:56:23.322Z,14.80
2022-10-14T21:58:50.911Z,14.90
2022-10-14T22:01:24.338Z,14.80
2022-10-14T22:03:56.269Z,14.90
2022-10-14T22:06:24.488Z,14.80
2022-10-14T22:08:54.894Z,14.80
2022-10-14T22:11:22.461Z,14.80
2022-10-14T22:13:51.524Z,14.80
2022-10-14T22:16:19.348Z,14.80
2022-10-14T22:18:50.381Z,14.80
2022-10-14T22:21:20.966Z,14.80
2022-10-14T22:23:49.627Z,14.80
2022-10-14T22:26:19.680Z,14.80
2022-10-14T22:28:48.110Z,14.90
2022-10-14T22:31:20.683Z,14.80
2022-10-14T22:33:48.971Z,14.80
2022-10-14T22:36:22.600Z,14.80
2022-10-14T22:38:53.339Z,14.80
2022-10-14T22:41:22.134Z,14.90
2022-10-14T22:43:56.280Z,14.90
2022-10-14T22:46:26.869Z,14.80
2022-10-14T22:48:56.813Z,14.80
2022-10-14T22:51:29.849Z,14.80
2022-10-14T22:53:57.548Z,14.80
2022-10-14T22:56:27.443Z,14.80
2022-10-14T22:59:04.317Z,14.80
2022-10-14T23:01:32.239Z,14.80
2022-10-14T23:04:00.441Z,14.80
2022-10-14T23:06:28.990Z,14.80
2022-10-14T23:08:57.547Z,14.70
2022-10-14T23:11:25.749Z,14.70
2022-10-14T23:13:53.940Z,14.80
2022-10-14T23:16:24.093Z,14.80
2022-10-14T23:18:52.873Z,14.80
2022-10-14T23:21:24.740Z,14.80
2022-10-14T23:23:55.474Z,14.80
2022-10-14T23:26:25.978Z,14.80
2022-10-14T23:28:55.706Z,14.70
2022-10-14T23:31:26.114Z,14.80
2022-10-14T23:33:54.362Z,14.80
2022-10-14T23:36:22.734Z,14.70
2022-10-14T23:38:52.429Z,14.70
2022-10-14T23:41:24.177Z,14.70
2022-10-14T23:43:52.753Z,14.70
2022-10-14T23:46:20.737Z,14.70
2022-10-14T23:48:55.919Z,14.80
2022-10-14T23:51:35.544Z,14.80
2022-10-14T23:54:04.052Z,14.80
2022-10-14T23:56:31.604Z,14.80
2022-10-14T23:58:59.214Z,14.80
